Time;durP1;ratioP1;P1;durP2;ratioP2;P2;SDS_P1;SDS_P2;PMS_P1;PMS_P2;Temp;Humidity;BMP_temperature;BMP_pressure;BME280_temperature;BME280_humidity;BME280_pressure;Samples;Min_cycle;Max_cycle;Signal;HPM_P1;HPM_P2
2024/04/16 00:00:22;;;;;;;9.60;0.43;;;7.00;99.90;;;;;;5372309;26;20000;-37
2024/04/16 00:02:48;;;;;;;5.35;0.40;;;7.00;99.90;;;;;;5372007;26;20450;-38
2024/04/16 00:05:15;;;;;;;6.63;0.30;;;7.00;99.90;;;;;;5364473;26;20040;-42
2024/04/16 00:07:40;;;;;;;3.53;0.38;;;6.90;99.90;;;;;;5371325;26;20462;-39
2024/04/16 00:10:06;;;;;;;8.40;0.50;;;6.90;99.90;;;;;;5365797;26;20015;-38
2024/04/16 00:12:32;;;;;;;6.03;1.10;;;6.90;99.90;;;;;;5365528;26;19997;-39
2024/04/16 00:14:57;;;;;;;3.85;0.28;;;6.90;99.90;;;;;;5368799;26;20007;-40
2024/04/16 00:17:27;;;;;;;9.20;0.75;;;6.90;99.90;;;;;;5366278;26;20040;-39
2024/04/16 00:19:55;;;;;;;5.78;0.40;;;6.90;99.90;;;;;;5365997;26;20012;-39
2024/04/16 00:22:21;;;;;;;5.22;0.45;;;6.90;99.90;;;;;;5368119;26;20050;-36
2024/04/16 00:24:47;;;;;;;5.93;0.30;;;6.90;99.90;;;;;;5364207;26;20012;-37
2024/04/16 00:27:12;;;;;;;7.28;0.50;;;6.90;99.90;;;;;;5365822;26;20004;-37
2024/04/16 00:29:38;;;;;;;2.85;0.30;;;6.90;99.90;;;;;;5371231;26;20019;-37
2024/04/16 00:32:04;;;;;;;6.00;0.30;;;6.90;99.90;;;;;;5372943;26;20062;-40
2024/04/16 00:34:29;;;;;;;5.22;0.35;;;6.90;99.90;;;;;;5376016;26;20066;-36
2024/04/16 00:36:55;;;;;;;8.13;0.40;;;6.90;99.90;;;;;;5367906;26;20008;-40
2024/04/16 00:39:20;;;;;;;7.95;0.40;;;6.90;99.90;;;;;;5370824;26;20471;-37
2024/04/16 00:41:49;;;;;;;7.07;0.30;;;6.90;99.90;;;;;;5371532;26;20052;-36
2024/04/16 00:44:14;;;;;;;5.53;0.30;;;6.90;99.90;;;;;;5371171;26;20551;-38
2024/04/16 00:46:40;;;;;;;6.43;0.30;;;6.80;99.90;;;;;;5370748;26;20068;-36
2024/04/16 00:49:07;;;;;;;5.13;0.40;;;6.80;99.90;;;;;;5371880;26;20011;-37
2024/04/16 00:51:34;;;;;;;4.55;0.30;;;6.80;99.90;;;;;;5371824;26;19996;-37
2024/04/16 00:54:00;;;;;;;2.63;0.30;;;6.80;99.90;;;;;;5369663;26;20038;-37
2024/04/16 00:56:26;;;;;;;4.40;0.40;;;6.80;99.90;;;;;;5362090;26;20004;-37
2024/04/16 00:58:53;;;;;;;2.42;0.30;;;6.70;99.90;;;;;;5371175;26;20015;-38
2024/04/16 01:01:19;;;;;;;4.07;0.35;;;6.70;99.90;;;;;;5371552;26;20004;-36
2024/04/16 01:03:44;;;;;;;5.78;0.40;;;6.70;99.90;;;;;;5370532;26;20011;-39
2024/04/16 01:06:10;;;;;;;4.15;0.30;;;6.70;99.90;;;;;;5368788;26;20008;-38
2024/04/16 01:08:36;;;;;;;8.00;0.30;;;6.70;99.90;;;;;;5369458;26;20004;-39
2024/04/16 01:11:02;;;;;;;4.18;0.30;;;6.70;99.90;;;;;;5371564;26;20008;-38
2024/04/16 01:13:27;;;;;;;3.88;0.30;;;6.60;99.90;;;;;;5370766;26;20012;-37
2024/04/16 01:15:53;;;;;;;2.78;0.30;;;6.60;99.90;;;;;;5371134;26;20363;-37
2024/04/16 01:18:18;;;;;;;2.35;0.20;;;6.60;99.90;;;;;;5364122;26;20008;-37
2024/04/16 01:20:44;;;;;;;11.00;0.80;;;6.60;99.90;;;;;;5370623;26;20448;-38
2024/04/16 01:23:09;;;;;;;7.60;0.30;;;6.60;99.90;;;;;;5367482;26;20000;-36
2024/04/16 01:25:35;;;;;;;9.13;0.63;;;6.60;99.90;;;;;;5365360;26;20475;-37
2024/04/16 01:28:01;;;;;;;6.20;0.68;;;6.60;99.90;;;;;;5368036;26;20323;-37
2024/04/16 01:30:27;;;;;;;2.53;0.30;;;6.60;99.90;;;;;;5344035;26;20486;-37
2024/04/16 01:32:53;;;;;;;1.70;0.20;;;6.50;99.90;;;;;;5367925;26;20011;-39
2024/04/16 01:35:18;;;;;;;2.20;0.35;;;6.50;99.90;;;;;;5367774;26;20014;-38
2024/04/16 01:37:44;;;;;;;2.90;0.30;;;6.50;99.90;;;;;;5367360;26;20000;-40
2024/04/16 01:40:10;;;;;;;5.30;0.50;;;6.40;99.90;;;;;;5367993;26;20008;-38
2024/04/16 01:42:35;;;;;;;4.63;0.40;;;6.40;99.90;;;;;;5370519;26;20023;-39
2024/04/16 01:45:01;;;;;;;4.07;0.30;;;6.30;99.90;;;;;;5360854;26;20467;-37
2024/04/16 01:47:27;;;;;;;2.40;0.40;;;6.30;99.90;;;;;;5370945;26;20004;-42
2024/04/16 01:49:53;;;;;;;5.50;0.50;;;6.20;99.90;;;;;;5370326;26;19997;-37
2024/04/16 01:52:18;;;;;;;4.25;0.75;;;6.10;99.90;;;;;;5370006;26;20339;-37
2024/04/16 01:54:44;;;;;;;4.53;0.50;;;6.10;99.90;;;;;;5365409;26;19997;-38
2024/04/16 01:57:09;;;;;;;3.58;0.70;;;6.10;99.90;;;;;;5369490;26;20004;-37
2024/04/16 01:59:35;;;;;;;4.40;1.05;;;6.10;99.90;;;;;;5369833;26;20004;-39
2024/04/16 02:02:00;;;;;;;6.05;0.52;;;6.10;99.90;;;;;;5370504;26;20074;-37
2024/04/16 02:04:27;;;;;;;3.50;0.50;;;6.10;99.90;;;;;;5365221;26;20004;-38
2024/04/16 02:06:52;;;;;;;4.88;1.45;;;6.10;99.90;;;;;;5369405;26;20018;-38
2024/04/16 02:09:18;;;;;;;6.45;0.50;;;6.00;99.90;;;;;;5370630;26;20459;-37
2024/04/16 02:11:44;;;;;;;5.13;0.75;;;6.00;99.90;;;;;;5369701;26;20036;-38
2024/04/16 02:14:10;;;;;;;4.97;0.70;;;6.00;99.90;;;;;;5369943;26;20358;-37
2024/04/16 02:16:35;;;;;;;4.22;1.00;;;5.90;99.90;;;;;;5365270;26;20000;-37
2024/04/16 02:19:01;;;;;;;6.00;1.05;;;5.90;99.90;;;;;;5372745;26;20011;-37
2024/04/16 02:21:26;;;;;;;10.43;0.73;;;5.90;99.90;;;;;;5367727;26;20750;-40
2024/04/16 02:23:52;;;;;;;8.00;0.88;;;5.90;99.90;;;;;;5366157;26;20514;-36
2024/04/16 02:26:18;;;;;;;2.90;0.40;;;5.90;99.90;;;;;;5359971;26;20003;-36
2024/04/16 02:28:44;;;;;;;2.22;0.50;;;5.90;99.90;;;;;;5367375;26;20056;-40
2024/04/16 02:31:09;;;;;;;9.43;1.38;;;6.00;99.90;;;;;;5362719;26;20050;-38
2024/04/16 02:33:35;;;;;;;3.50;0.73;;;5.90;99.90;;;;;;5370090;26;20000;-37
2024/04/16 02:36:02;;;;;;;2.35;0.40;;;5.90;99.90;;;;;;5361574;26;20004;-37
2024/04/16 02:38:28;;;;;;;8.18;0.88;;;5.90;99.90;;;;;;5367500;26;20007;-37
2024/04/16 02:40:53;;;;;;;5.70;0.80;;;5.90;99.90;;;;;;5367639;26;19997;-43
2024/04/16 02:43:19;;;;;;;7.72;0.70;;;5.90;99.90;;;;;;5364242;26;19992;-36
2024/04/16 02:45:44;;;;;;;3.97;0.70;;;5.90;99.90;;;;;;5363657;26;20012;-36
2024/04/16 02:48:10;;;;;;;5.93;0.60;;;5.80;99.90;;;;;;5361014;26;20074;-38
2024/04/16 02:50:36;;;;;;;9.85;0.95;;;5.90;99.90;;;;;;5366472;26;19992;-37
2024/04/16 02:53:01;;;;;;;3.50;0.55;;;5.90;99.90;;;;;;5356627;26;20000;-37
2024/04/16 02:55:27;;;;;;;7.68;0.73;;;5.90;99.90;;;;;;5366403;26;20095;-38
2024/04/16 02:57:52;;;;;;;3.42;0.40;;;5.90;99.90;;;;;;5361379;26;20013;-37
2024/04/16 03:00:18;;;;;;;4.68;0.40;;;5.90;99.90;;;;;;5370585;26;20079;-40
2024/04/16 03:02:43;;;;;;;5.47;0.55;;;5.90;99.90;;;;;;5372796;26;19992;-37
2024/04/16 03:05:09;;;;;;;5.00;0.70;;;5.90;99.90;;;;;;5372060;26;20036;-36
2024/04/16 03:07:35;;;;;;;3.55;0.90;;;6.00;99.90;;;;;;5364247;26;20033;-37
2024/04/16 03:10:00;;;;;;;4.55;0.80;;;6.00;99.90;;;;;;5372261;26;20008;-37
2024/04/16 03:12:26;;;;;;;7.38;0.73;;;6.00;99.90;;;;;;5365824;26;20011;-37
2024/04/16 03:14:54;;;;;;;8.77;0.70;;;6.00;99.90;;;;;;5369077;26;20483;-37
2024/04/16 03:17:20;;;;;;;5.22;0.75;;;6.00;99.90;;;;;;5371872;26;20004;-36
2024/04/16 03:19:46;;;;;;;5.40;0.60;;;6.00;99.90;;;;;;5368729;26;20011;-38
2024/04/16 03:22:11;;;;;;;3.22;0.50;;;6.00;99.90;;;;;;5361806;26;20000;-38
2024/04/16 03:24:37;;;;;;;8.00;0.80;;;6.00;99.90;;;;;;5356428;26;20004;-39
2024/04/16 03:27:03;;;;;;;3.15;0.50;;;6.00;99.90;;;;;;5371217;26;20019;-38
2024/04/16 03:29:28;;;;;;;10.02;1.05;;;6.00;99.90;;;;;;5372826;26;20000;-40
2024/04/16 03:31:54;;;;;;;4.70;0.40;;;6.00;99.90;;;;;;5372364;26;20327;-37
2024/04/16 03:34:19;;;;;;;9.35;0.60;;;6.00;99.90;;;;;;5366537;26;20620;-37
2024/04/16 03:36:45;;;;;;;11.20;0.50;;;6.00;99.90;;;;;;5362737;26;20350;-39
2024/04/16 03:39:10;;;;;;;4.18;0.40;;;6.00;99.90;;;;;;5368058;26;20510;-37
2024/04/16 03:41:36;;;;;;;8.38;0.75;;;6.00;99.90;;;;;;5371044;26;20004;-36
2024/04/16 03:44:01;;;;;;;3.63;0.40;;;6.00;99.90;;;;;;5368723;26;20008;-38
2024/04/16 03:46:27;;;;;;;7.53;0.82;;;6.00;99.90;;;;;;5367960;26;20015;-37
2024/04/16 03:48:52;;;;;;;9.77;0.50;;;6.00;99.90;;;;;;5368822;26;20077;-40
2024/04/16 03:51:19;;;;;;;9.25;0.63;;;6.00;99.90;;;;;;5370541;26;20016;-37
2024/04/16 03:53:45;;;;;;;9.93;0.70;;;6.00;99.90;;;;;;5358232;26;20041;-38
2024/04/16 03:56:10;;;;;;;3.92;0.70;;;6.00;99.90;;;;;;5367196;26;20338;-38
2024/04/16 03:58:53;;;;;;;4.18;0.52;;;5.90;99.90;;;;;;5372443;26;20403;-42
2024/04/16 04:01:20;;;;;;;3.08;0.68;;;5.90;99.90;;;;;;5371395;26;20004;-37
2024/04/16 04:03:45;;;;;;;6.07;0.60;;;5.90;99.90;;;;;;5368152;26;20028;-37
2024/04/16 04:06:11;;;;;;;7.55;0.85;;;5.90;99.90;;;;;;5365847;26;20014;-38
2024/04/16 04:08:36;;;;;;;3.28;0.93;;;5.90;99.90;;;;;;5370077;26;20077;-42
2024/04/16 04:11:02;;;;;;;7.65;1.05;;;5.80;99.90;;;;;;5367548;26;20026;-40
2024/04/16 04:13:28;;;;;;;2.92;0.63;;;5.80;99.90;;;;;;5358671;26;20004;-37
2024/04/16 04:15:56;;;;;;;8.10;1.08;;;5.80;99.90;;;;;;5366883;26;20018;-38
2024/04/16 04:18:21;;;;;;;9.38;1.65;;;5.80;99.90;;;;;;5362175;26;20000;-38
2024/04/16 04:20:47;;;;;;;8.13;1.40;;;5.90;99.90;;;;;;5368634;26;20467;-37
2024/04/16 04:23:14;;;;;;;6.38;1.27;;;5.80;99.90;;;;;;5368443;26;19996;-41
2024/04/16 04:25:39;;;;;;;3.22;0.80;;;5.90;99.90;;;;;;5368982;26;20399;-37
2024/04/16 04:28:05;;;;;;;8.05;2.08;;;5.90;99.90;;;;;;5360637;26;20008;-41
2024/04/16 04:30:30;;;;;;;5.15;0.98;;;5.90;99.90;;;;;;5369259;26;19996;-38
2024/04/16 04:32:56;;;;;;;8.48;0.70;;;5.90;99.90;;;;;;5369332;26;20079;-37
2024/04/16 04:35:21;;;;;;;6.20;0.60;;;5.90;99.90;;;;;;5371853;26;19993;-39
2024/04/16 04:37:47;;;;;;;11.30;0.70;;;5.90;99.90;;;;;;5370820;26;20004;-36
2024/04/16 04:40:12;;;;;;;7.28;0.60;;;5.90;99.90;;;;;;5368300;26;20002;-36
2024/04/16 04:42:38;;;;;;;4.30;0.70;;;5.90;99.90;;;;;;5370989;26;20015;-37
2024/04/16 04:45:04;;;;;;;7.72;0.70;;;5.90;99.90;;;;;;5372157;26;19996;-36
2024/04/16 04:47:29;;;;;;;8.23;0.60;;;5.90;99.90;;;;;;5369826;26;20499;-37
2024/04/16 04:49:55;;;;;;;6.13;0.98;;;5.90;99.90;;;;;;5368087;26;20007;-37
2024/04/16 04:52:20;;;;;;;5.80;0.68;;;5.90;99.90;;;;;;5370278;26;20015;-37
2024/04/16 04:54:46;;;;;;;8.95;0.88;;;5.90;99.90;;;;;;5371456;26;20000;-40
2024/04/16 04:57:11;;;;;;;5.60;0.80;;;5.90;99.90;;;;;;5370055;26;20459;-36
2024/04/16 04:59:37;;;;;;;5.28;0.68;;;5.90;99.90;;;;;;5371117;26;20363;-40
2024/04/16 05:02:02;;;;;;;4.53;0.65;;;5.90;99.90;;;;;;5371408;26;19996;-37
2024/04/16 05:04:28;;;;;;;4.38;0.63;;;6.00;99.90;;;;;;5371287;26;20065;-39
2024/04/16 05:06:54;;;;;;;4.88;0.70;;;6.00;99.90;;;;;;5338943;26;20032;-36
2024/04/16 05:09:19;;;;;;;3.03;0.50;;;6.00;99.90;;;;;;5360476;26;20005;-40
2024/04/16 05:11:45;;;;;;;5.38;0.60;;;5.90;99.90;;;;;;5370560;26;20000;-41
2024/04/16 05:14:11;;;;;;;6.28;0.63;;;6.00;99.90;;;;;;5357704;26;20001;-37
2024/04/16 05:16:36;;;;;;;7.65;0.43;;;6.00;99.90;;;;;;5364466;26;20001;-43
2024/04/16 05:19:03;;;;;;;1.80;0.30;;;6.00;99.90;;;;;;5369060;26;20008;-37
2024/04/16 05:21:29;;;;;;;5.20;0.82;;;6.00;99.90;;;;;;5364594;26;20012;-40
2024/04/16 05:23:55;;;;;;;1.75;0.30;;;6.00;99.90;;;;;;5366460;26;20070;-37
2024/04/16 05:26:22;;;;;;;3.30;0.20;;;6.00;99.90;;;;;;5367919;26;20004;-40
2024/04/16 05:28:48;;;;;;;1.25;0.20;;;6.00;99.90;;;;;;5363786;26;20000;-42
2024/04/16 05:31:14;;;;;;;4.90;0.35;;;6.00;99.90;;;;;;5365451;26;20011;-37
2024/04/16 05:33:39;;;;;;;1.02;0.10;;;6.00;99.90;;;;;;5364208;26;20000;-40
2024/04/16 05:36:05;;;;;;;2.70;0.10;;;6.00;99.90;;;;;;5371764;26;20015;-37
2024/04/16 05:38:31;;;;;;;2.90;0.40;;;6.00;99.90;;;;;;5365792;26;20034;-38
2024/04/16 05:40:56;;;;;;;1.15;0.10;;;6.00;99.90;;;;;;5370620;26;20493;-37
2024/04/16 05:43:22;;;;;;;2.60;0.10;;;6.10;99.90;;;;;;5365266;26;20008;-37
2024/04/16 05:45:47;;;;;;;2.22;0.10;;;6.10;99.90;;;;;;5370004;26;20073;-40
2024/04/16 05:48:13;;;;;;;1.95;0.10;;;6.10;99.90;;;;;;5370998;26;20014;-38
2024/04/16 05:50:38;;;;;;;1.48;0.10;;;6.10;99.90;;;;;;5363182;26;20343;-39
2024/04/16 05:53:04;;;;;;;2.65;0.10;;;6.10;99.90;;;;;;5336718;26;20001;-38
2024/04/16 05:55:30;;;;;;;3.65;0.30;;;6.10;99.90;;;;;;5369695;26;20004;-38
2024/04/16 05:57:55;;;;;;;1.75;0.10;;;6.10;99.90;;;;;;5370434;26;19996;-37
2024/04/16 06:00:21;;;;;;;2.33;0.10;;;6.00;99.90;;;;;;5370677;26;20000;-37
2024/04/16 06:02:47;;;;;;;1.30;0.10;;;6.00;99.90;;;;;;5367352;26;20000;-40
2024/04/16 06:05:13;;;;;;;1.90;0.10;;;6.10;99.90;;;;;;5370844;26;20004;-36
2024/04/16 06:07:39;;;;;;;0.50;0.10;;;6.10;99.90;;;;;;5369467;26;20562;-38
2024/04/16 06:10:05;;;;;;;3.17;0.20;;;6.10;99.90;;;;;;5370938;26;20014;-37
2024/04/16 06:12:31;;;;;;;1.73;0.20;;;6.20;99.90;;;;;;5369739;26;19996;-39
2024/04/16 06:14:58;;;;;;;8.73;0.20;;;6.20;99.90;;;;;;5367978;26;20000;-37
2024/04/16 06:17:23;;;;;;;4.80;0.20;;;6.20;99.90;;;;;;5349507;26;20024;-37
2024/04/16 06:19:49;;;;;;;7.70;0.30;;;6.20;99.90;;;;;;5367153;26;20027;-37
2024/04/16 06:22:14;;;;;;;2.97;0.47;;;6.20;99.90;;;;;;5336186;26;20028;-37
2024/04/16 06:24:40;;;;;;;5.20;0.40;;;6.20;99.90;;;;;;5363835;26;19996;-38
2024/04/16 06:27:05;;;;;;;4.18;0.30;;;6.30;99.90;;;;;;5363602;26;19996;-41
2024/04/16 06:29:31;;;;;;;3.65;0.30;;;6.30;99.90;;;;;;5364312;26;19997;-37
2024/04/16 06:31:57;;;;;;;5.63;0.50;;;6.40;99.90;;;;;;5370152;26;19996;-36
2024/04/16 06:34:22;;;;;;;11.90;0.63;;;6.40;99.90;;;;;;5373219;26;20015;-37
2024/04/16 06:36:48;;;;;;;6.20;0.60;;;6.50;99.90;;;;;;5369835;26;20344;-37
2024/04/16 06:39:13;;;;;;;14.23;0.90;;;6.60;99.90;;;;;;5360378;26;20557;-38
2024/04/16 06:41:39;;;;;;;4.60;0.65;;;6.60;99.90;;;;;;5363273;26;20450;-38
2024/04/16 06:44:04;;;;;;;8.93;0.40;;;6.70;99.90;;;;;;5364572;26;20008;-37
2024/04/16 06:46:30;;;;;;;11.75;0.57;;;6.80;99.90;;;;;;5370997;26;20035;-40
2024/04/16 06:48:55;;;;;;;6.28;0.50;;;6.80;99.90;;;;;;5365854;26;20000;-40
2024/04/16 06:51:21;;;;;;;11.20;0.50;;;6.90;99.90;;;;;;5370384;26;19997;-38
2024/04/16 06:53:47;;;;;;;6.68;0.47;;;7.00;99.90;;;;;;5369161;26;20001;-38
2024/04/16 06:56:12;;;;;;;11.75;1.10;;;7.10;99.90;;;;;;5372934;26;20007;-37
2024/04/16 06:58:38;;;;;;;11.30;1.08;;;7.20;99.90;;;;;;5377364;26;20079;-40
2024/04/16 07:01:03;;;;;;;12.10;0.82;;;7.20;99.90;;;;;;5368613;26;20001;-38
2024/04/16 07:03:29;;;;;;;10.05;0.70;;;7.30;99.90;;;;;;5371550;26;20449;-37
2024/04/16 07:05:54;;;;;;;5.95;0.30;;;7.40;99.90;;;;;;5372356;26;20320;-37
2024/04/16 07:08:22;;;;;;;6.40;0.50;;;7.80;99.90;;;;;;5371829;26;20398;-37
2024/04/16 07:10:49;;;;;;;5.30;0.50;;;8.10;99.90;;;;;;5371025;26;20062;-38
2024/04/16 07:13:15;;;;;;;2.50;0.25;;;8.20;99.90;;;;;;5371633;26;20000;-43
2024/04/16 07:15:41;;;;;;;7.78;0.30;;;8.20;99.90;;;;;;5372394;26;20011;-38
2024/04/16 07:18:07;;;;;;;12.50;1.05;;;8.30;99.90;;;;;;5341519;26;20454;-44
2024/04/16 07:20:32;;;;;;;10.18;0.45;;;8.30;99.90;;;;;;5367015;26;20012;-44
2024/04/16 07:22:58;;;;;;;13.98;0.85;;;8.20;99.90;;;;;;5334668;26;20435;-38
2024/04/16 07:25:24;;;;;;;10.75;0.47;;;8.10;99.90;;;;;;5366475;26;20004;-37
2024/04/16 07:27:50;;;;;;;3.78;0.22;;;8.00;99.90;;;;;;5369506;26;20008;-37
2024/04/16 07:30:18;;;;;;;11.20;0.50;;;8.00;99.90;;;;;;5370843;26;20528;-38
2024/04/16 07:32:44;;;;;;;7.97;1.30;;;8.00;99.90;;;;;;5370670;26;20028;-39
2024/04/16 07:35:10;;;;;;;7.03;0.60;;;8.00;99.90;;;;;;5370755;26;20014;-37
2024/04/16 07:37:35;;;;;;;9.18;0.60;;;8.10;99.90;;;;;;5364838;26;20015;-40
2024/04/16 07:40:01;;;;;;;5.40;0.17;;;8.10;99.90;;;;;;5370227;26;20016;-38
2024/04/16 07:42:26;;;;;;;14.23;0.80;;;8.10;99.90;;;;;;5368077;26;20001;-37
2024/04/16 07:44:52;;;;;;;5.93;0.32;;;8.10;99.90;;;;;;5361608;26;19996;-38
2024/04/16 07:47:17;;;;;;;7.38;0.82;;;8.20;99.90;;;;;;5369863;26;19996;-38
2024/04/16 07:49:43;;;;;;;11.40;0.77;;;8.10;99.90;;;;;;5367323;26;20335;-41
2024/04/16 07:52:08;;;;;;;7.30;0.25;;;8.20;99.90;;;;;;5369464;26;20361;-37
2024/04/16 07:54:34;;;;;;;10.65;0.30;;;8.20;99.90;;;;;;5367962;26;20619;-38
2024/04/16 07:57:00;;;;;;;5.30;0.60;;;8.30;99.90;;;;;;5368305;26;19996;-38
2024/04/16 07:59:25;;;;;;;8.80;0.50;;;8.40;99.90;;;;;;5368394;26;20013;-37
2024/04/16 08:01:51;;;;;;;7.03;0.75;;;8.40;99.90;;;;;;5365206;26;20020;-38
2024/04/16 08:04:16;;;;;;;7.70;0.32;;;8.50;99.90;;;;;;5368194;26;20336;-38
2024/04/16 08:06:42;;;;;;;6.95;1.48;;;8.50;99.90;;;;;;5369229;26;20004;-38
2024/04/16 08:09:08;;;;;;;7.63;0.40;;;8.60;99.90;;;;;;5369301;26;20012;-39
2024/04/16 08:11:33;;;;;;;11.27;0.80;;;8.70;99.90;;;;;;5367856;26;20000;-37
2024/04/16 08:13:59;;;;;;;7.03;0.25;;;8.80;99.90;;;;;;5369888;26;20023;-43
2024/04/16 08:16:25;;;;;;;4.72;0.30;;;8.80;99.90;;;;;;5370571;26;20052;-37
2024/04/16 08:18:51;;;;;;;7.72;0.60;;;8.90;99.90;;;;;;5370489;26;20477;-40
2024/04/16 08:21:16;;;;;;;9.27;0.40;;;8.90;99.90;;;;;;5369535;26;20000;-39
2024/04/16 08:23:42;;;;;;;9.18;0.30;;;9.00;99.90;;;;;;5367502;26;20366;-38
2024/04/16 08:26:07;;;;;;;8.30;0.40;;;8.90;99.90;;;;;;5365528;26;20008;-37
2024/04/16 08:28:33;;;;;;;3.97;0.20;;;9.00;99.90;;;;;;5369815;26;20001;-42
2024/04/16 08:31:00;;;;;;;5.15;0.30;;;9.00;99.90;;;;;;5363555;26;20353;-40
2024/04/16 08:33:26;;;;;;;5.90;0.38;;;9.10;99.90;;;;;;5369763;26;20012;-40
2024/04/16 08:35:53;;;;;;;3.42;0.40;;;9.10;99.90;;;;;;5367035;26;20004;-38
2024/04/16 08:38:19;;;;;;;5.43;0.20;;;9.10;99.90;;;;;;5370577;26;20019;-38
2024/04/16 08:40:45;;;;;;;10.13;0.77;;;9.10;99.90;;;;;;5367877;26;20462;-37
2024/04/16 08:43:11;;;;;;;3.60;0.40;;;9.00;99.90;;;;;;5368340;26;20012;-43
2024/04/16 08:45:37;;;;;;;3.13;0.35;;;8.90;99.90;;;;;;5369836;26;20561;-40
2024/04/16 08:48:05;;;;;;;6.80;0.28;;;8.90;99.90;;;;;;5370860;26;20030;-38
2024/04/16 08:50:33;;;;;;;6.28;0.30;;;8.90;99.90;;;;;;5368943;26;19996;-37
2024/04/16 08:53:00;;;;;;;5.78;0.30;;;8.80;99.90;;;;;;5368391;26;19996;-38
2024/04/16 08:55:26;;;;;;;7.45;0.65;;;8.70;99.90;;;;;;5372805;26;19996;-37
2024/04/16 08:57:52;;;;;;;6.00;0.30;;;8.60;99.90;;;;;;5368151;26;20004;-38
2024/04/16 09:00:19;;;;;;;10.20;0.85;;;8.60;99.90;;;;;;5366466;26;20348;-38
2024/04/16 09:02:45;;;;;;;10.98;0.50;;;8.60;99.90;;;;;;5369965;26;20472;-39
2024/04/16 09:05:11;;;;;;;4.50;0.30;;;8.80;99.90;;;;;;5370830;26;20002;-38
2024/04/16 09:07:40;;;;;;;5.00;0.20;;;8.80;99.90;;;;;;5365449;26;20004;-43
2024/04/16 09:10:12;;;;;;;11.52;0.57;;;8.90;99.90;;;;;;5363610;26;20010;-38
2024/04/16 09:12:41;;;;;;;9.38;0.57;;;8.90;99.90;;;;;;5358252;26;20474;-39
2024/04/16 09:15:06;;;;;;;9.93;0.45;;;8.90;99.90;;;;;;5364786;26;20001;-46
2024/04/16 09:17:32;;;;;;;8.55;0.85;;;8.90;99.90;;;;;;5368171;26;20011;-39
2024/04/16 09:20:01;;;;;;;7.35;0.30;;;9.00;99.90;;;;;;5368428;26;20370;-41
2024/04/16 09:22:26;;;;;;;11.05;0.40;;;9.00;99.90;;;;;;5365317;26;20022;-40
2024/04/16 09:24:52;;;;;;;6.65;0.25;;;9.10;99.90;;;;;;5366551;26;20000;-38
2024/04/16 09:27:17;;;;;;;11.07;1.45;;;9.10;99.90;;;;;;5365262;26;20311;-38
2024/04/16 09:29:44;;;;;;;9.52;0.57;;;9.10;99.90;;;;;;5366380;26;20364;-40
2024/04/16 09:32:10;;;;;;;9.48;0.30;;;9.20;99.90;;;;;;5365848;26;20000;-38
2024/04/16 09:34:42;;;;;;;4.85;0.40;;;9.20;99.90;;;;;;5363298;26;20019;-43
2024/04/16 09:37:07;;;;;;;8.55;0.30;;;9.30;99.90;;;;;;5353811;26;20037;-39
2024/04/16 09:39:33;;;;;;;2.63;0.30;;;9.30;99.90;;;;;;5361749;26;20078;-40
2024/04/16 09:41:59;;;;;;;5.50;0.38;;;9.20;99.90;;;;;;5362772;26;20019;-40
2024/04/16 09:44:25;;;;;;;13.32;0.50;;;9.20;99.90;;;;;;5368320;26;20015;-37
2024/04/16 09:46:51;;;;;;;6.50;0.30;;;9.20;99.90;;;;;;5367356;26;20454;-38
2024/04/16 09:49:18;;;;;;;6.22;0.40;;;9.30;99.90;;;;;;5368049;26;19996;-37
2024/04/16 09:51:47;;;;;;;6.28;0.40;;;9.30;99.90;;;;;;5366665;26;20569;-36
2024/04/16 09:54:15;;;;;;;11.05;1.33;;;9.40;99.90;;;;;;5367487;26;20027;-38
2024/04/16 09:56:43;;;;;;;7.82;0.30;;;9.50;99.90;;;;;;5367029;26;20017;-39
2024/04/16 09:59:12;;;;;;;7.90;0.45;;;9.60;99.90;;;;;;5367283;26;20011;-39
2024/04/16 10:01:40;;;;;;;3.83;0.65;;;9.70;99.90;;;;;;5366747;26;20036;-40
2024/04/16 10:04:08;;;;;;;6.78;0.35;;;9.70;99.90;;;;;;5367732;26;20010;-37
2024/04/16 10:06:34;;;;;;;8.82;0.80;;;9.70;99.90;;;;;;5334816;26;20003;-38
2024/04/16 10:09:00;;;;;;;8.60;0.50;;;9.80;99.90;;;;;;5362283;26;20529;-37
2024/04/16 10:11:27;;;;;;;3.25;0.30;;;9.90;99.90;;;;;;5367459;26;20000;-37
2024/04/16 10:13:54;;;;;;;5.70;0.40;;;9.90;99.90;;;;;;5366796;26;20082;-36
2024/04/16 10:16:19;;;;;;;4.82;0.40;;;10.00;99.90;;;;;;5367676;26;20000;-37
2024/04/16 10:18:55;;;;;;;3.70;0.30;;;9.90;99.90;;;;;;5366711;26;20573;-37
2024/04/16 10:21:23;;;;;;;7.40;0.30;;;9.90;99.90;;;;;;5366360;26;20000;-40
2024/04/16 10:23:58;;;;;;;6.95;0.40;;;9.90;99.90;;;;;;5366955;26;21018;-39
2024/04/16 10:26:25;;;;;;;10.00;0.68;;;9.90;99.90;;;;;;5366618;26;20019;-37
2024/04/16 10:28:55;;;;;;;5.47;0.30;;;9.90;99.90;;;;;;5365250;26;20075;-40
2024/04/16 10:31:28;;;;;;;5.43;0.68;;;9.90;99.90;;;;;;5363825;26;20004;-42
2024/04/16 10:34:01;;;;;;;3.38;0.30;;;9.90;99.90;;;;;;5375207;26;20000;-37
2024/04/16 10:36:27;;;;;;;3.50;0.30;;;9.90;99.90;;;;;;5366164;26;20005;-37
2024/04/16 10:38:53;;;;;;;5.50;1.45;;;9.90;99.90;;;;;;5376041;26;20004;-41
2024/04/16 10:41:25;;;;;;;7.90;0.40;;;9.80;99.90;;;;;;5363871;26;20011;-37
2024/04/16 10:43:53;;;;;;;2.08;0.20;;;9.70;99.90;;;;;;5365333;26;20009;-38
2024/04/16 10:46:23;;;;;;;2.35;0.50;;;9.60;99.90;;;;;;5367567;26;20371;-37
2024/04/16 10:48:49;;;;;;;3.70;0.40;;;9.50;99.90;;;;;;5364440;26;20544;-37
2024/04/16 10:51:15;;;;;;;6.32;0.50;;;9.40;99.90;;;;;;5366733;26;20008;-41
2024/04/16 10:53:42;;;;;;;5.65;0.40;;;9.40;99.90;;;;;;5367570;26;20011;-37
2024/04/16 10:56:11;;;;;;;5.90;0.30;;;9.30;99.90;;;;;;5367837;26;20757;-37
2024/04/16 10:58:37;;;;;;;4.13;0.30;;;9.30;99.90;;;;;;5367690;26;20031;-43
2024/04/16 11:01:03;;;;;;;4.32;0.30;;;9.30;99.90;;;;;;5367554;26;20768;-37
2024/04/16 11:03:32;;;;;;;4.05;0.22;;;9.30;99.90;;;;;;5367647;26;20044;-36
2024/04/16 11:05:58;;;;;;;3.80;0.20;;;9.30;99.90;;;;;;5366104;26;20032;-37
2024/04/16 11:08:23;;;;;;;3.90;0.50;;;9.40;99.90;;;;;;5364643;26;20339;-37
2024/04/16 11:10:50;;;;;;;4.57;0.20;;;9.40;99.90;;;;;;5366351;26;19992;-36
2024/04/16 11:13:17;;;;;;;5.10;0.30;;;9.40;99.90;;;;;;5366451;26;20077;-40
2024/04/16 11:15:43;;;;;;;5.68;0.20;;;9.40;99.90;;;;;;5370813;26;19993;-37
2024/04/16 11:18:09;;;;;;;8.25;0.10;;;9.30;99.90;;;;;;5370674;26;20000;-37
2024/04/16 11:20:35;;;;;;;4.55;0.30;;;9.20;99.90;;;;;;5371183;26;20011;-42
2024/04/16 11:23:01;;;;;;;1.80;0.10;;;9.20;99.90;;;;;;5370470;26;20430;-37
2024/04/16 11:25:31;;;;;;;1.42;0.10;;;9.20;99.90;;;;;;5370853;26;20493;-38
2024/04/16 11:27:57;;;;;;;3.45;0.17;;;9.20;99.90;;;;;;5370799;26;20581;-37
2024/04/16 11:30:23;;;;;;;2.05;0.10;;;9.10;99.90;;;;;;5370178;26;20043;-36
2024/04/16 11:32:49;;;;;;;2.08;0.10;;;9.10;99.90;;;;;;5370828;26;20012;-41
2024/04/16 11:35:15;;;;;;;1.95;0.10;;;9.10;99.90;;;;;;5370465;26;19996;-37
2024/04/16 11:37:44;;;;;;;1.85;0.20;;;9.10;99.90;;;;;;5369409;26;20015;-39
2024/04/16 11:40:10;;;;;;;2.15;0.55;;;9.10;99.90;;;;;;5369155;26;20470;-37
2024/04/16 11:42:37;;;;;;;1.63;0.20;;;9.10;99.90;;;;;;5371296;26;20007;-38
2024/04/16 11:45:03;;;;;;;2.00;0.10;;;9.10;99.90;;;;;;5370639;26;20003;-36
2024/04/16 11:47:28;;;;;;;3.35;0.20;;;9.20;99.90;;;;;;5370946;26;20460;-36
2024/04/16 11:49:55;;;;;;;2.15;0.28;;;9.20;99.90;;;;;;5370519;26;20028;-37
2024/04/16 11:52:21;;;;;;;6.82;0.20;;;9.20;99.90;;;;;;5369509;26;20071;-36
2024/04/16 11:54:46;;;;;;;3.90;0.30;;;9.20;99.90;;;;;;5346364;26;20393;-38
2024/04/16 11:57:12;;;;;;;6.05;0.50;;;9.20;99.90;;;;;;5368951;26;20015;-38
2024/04/16 11:59:37;;;;;;;4.55;0.40;;;9.20;99.90;;;;;;5370228;26;20354;-43
2024/04/16 12:02:03;;;;;;;4.18;0.20;;;9.20;99.90;;;;;;5371335;26;20004;-38
2024/04/16 12:04:29;;;;;;;3.58;0.20;;;9.10;99.90;;;;;;5370618;26;20000;-43
2024/04/16 12:06:55;;;;;;;2.40;0.32;;;9.20;99.90;;;;;;5369697;26;20451;-38
2024/04/16 12:09:21;;;;;;;2.58;0.40;;;9.20;99.90;;;;;;5370593;26;20004;-37
2024/04/16 12:11:46;;;;;;;2.78;0.50;;;9.20;99.90;;;;;;5370093;26;19996;-38
2024/04/16 12:14:12;;;;;;;2.60;0.32;;;9.30;99.90;;;;;;5367612;26;19996;-37
2024/04/16 12:16:38;;;;;;;4.07;1.05;;;9.20;99.90;;;;;;5364461;26;20000;-43
2024/04/16 12:19:04;;;;;;;1.27;0.30;;;9.20;99.90;;;;;;5362045;26;20018;-38
2024/04/16 12:21:30;;;;;;;1.88;0.15;;;9.20;99.90;;;;;;5368875;26;20441;-39
2024/04/16 12:23:56;;;;;;;2.60;0.30;;;9.20;99.90;;;;;;5361137;26;19996;-37
2024/04/16 12:26:22;;;;;;;5.50;0.35;;;9.10;99.90;;;;;;5370031;26;20033;-37
2024/04/16 12:28:49;;;;;;;6.13;0.40;;;9.10;99.90;;;;;;5370743;26;20042;-37
2024/04/16 12:31:15;;;;;;;5.05;0.40;;;9.10;99.90;;;;;;5367806;26;20471;-38
2024/04/16 12:33:41;;;;;;;5.45;0.30;;;9.10;99.90;;;;;;5360539;26;19996;-39
2024/04/16 12:36:09;;;;;;;4.68;0.40;;;9.20;99.90;;;;;;5369534;26;20024;-40
2024/04/16 12:38:35;;;;;;;3.63;0.40;;;9.20;99.90;;;;;;5369246;26;19996;-38
2024/04/16 12:41:00;;;;;;;8.55;1.27;;;9.30;99.90;;;;;;5366398;26;19992;-39
2024/04/16 12:43:26;;;;;;;5.68;0.30;;;9.30;99.90;;;;;;5362163;26;20490;-39
2024/04/16 12:46:00;;;;;;;4.20;0.30;;;9.30;99.90;;;;;;5362989;26;19996;-41
2024/04/16 12:48:26;;;;;;;5.13;1.20;;;9.30;99.90;;;;;;5358964;26;20008;-38